Time,TemperatureF,DewpointF,PressureIn,WindDirection,WindDirectionDegrees,WindSpeedMPH,WindSpeedGustMPH,Humidity,HourlyPrecipIn,Conditions,Clouds,dailyrainin,SoftwareType,DateUTC
2013-09-20 00:00:00,75.6,73.8,29.99,SE,138,1.0,3.0,94,0.00,,,0.48,meteohub,2013-09-20 04:00:00,
2013-09-20 00:01:00,75.6,73.8,29.99,SE,138,0.0,3.0,94,0.00,,,0.48,meteohub,2013-09-20 04:01:00,
2013-09-20 00:02:00,75.6,73.8,29.99,SE,138,1.0,3.0,94,0.00,,,0.48,meteohub,2013-09-20 04:02:00,
2013-09-20 00:03:00,75.6,73.8,29.99,SE,138,0.0,3.0,94,0.00,,,0.48,meteohub,2013-09-20 04:03:00,
2013-09-20 00:08:00,75.6,73.8,29.99,SE,138,0.0,3.0,94,0.00,,,0.48,meteohub,2013-09-20 04:08:00,
2013-09-20 00:13:00,75.6,73.8,29.99,SE,138,0.0,2.0,94,0.00,,,0.00,meteohub,2013-09-20 04:13:00,
2013-09-20 00:18:00,75.6,73.8,29.99,SE,138,0.0,2.0,94,0.00,,,0.00,meteohub,2013-09-20 04:18:00,
2013-09-20 00:23:00,75.6,73.8,29.99,SE,138,1.0,2.0,94,0.00,,,0.00,meteohub,2013-09-20 04:23:00,
2013-09-20 00:28:00,75.6,73.8,29.99,SE,138,1.0,2.0,94,0.00,,,0.00,meteohub,2013-09-20 04:28:00,
2013-09-20 00:33:00,75.4,73.6,29.99,SE,138,0.0,2.0,94,0.00,,,0.00,meteohub,2013-09-20 04:33:00,
2013-09-20 00:38:00,75.4,73.6,29.99,SE,138,0.0,2.0,94,0.00,,,0.00,meteohub,2013-09-20 04:38:00,
2013-09-20 00:43:00,75.4,73.6,29.99,SE,138,0.0,2.0,94,0.00,,,0.00,meteohub,2013-09-20 04:43:00,
2013-09-20 00:48:00,75.4,73.6,29.99,SE,138,0.0,1.0,94,0.00,,,0.00,meteohub,2013-09-20 04:48:00,
2013-09-20 00:53:00,75.4,73.6,29.99,SE,138,0.0,1.0,94,0.00,,,0.00,meteohub,2013-09-20 04:53:00,
2013-09-20 00:59:00,75.4,73.6,29.99,SE,138,0.0,1.0,94,0.00,,,0.00,meteohub,2013-09-20 04:59:00,
2013-09-20 01:04:00,75.4,73.6,29.98,SE,138,0.0,1.0,94,0.00,,,0.00,meteohub,2013-09-20 05:04:00,
2013-09-20 01:09:00,75.4,73.6,29.98,SE,138,0.0,1.0,94,0.00,,,0.00,meteohub,2013-09-20 05:09:00,
2013-09-20 01:14:00,75.4,73.6,29.98,SE,138,0.0,1.0,94,0.00,,,0.00,meteohub,2013-09-20 05:14:00,
2013-09-20 01:19:00,75.2,73.4,29.98,SE,138,0.0,2.0,94,0.00,,,0.00,meteohub,2013-09-20 05:19:00,
2013-09-20 01:24:00,75.0,73.2,29.98,SE,138,1.0,2.0,94,0.00,,,0.00,meteohub,2013-09-20 05:24:00,
2013-09-20 01:29:00,75.2,73.4,29.98,SE,138,1.0,2.0,94,0.00,,,0.00,meteohub,2013-09-20 05:29:00,
2013-09-20 01:34:00,75.0,73.2,29.98,SE,138,0.0,2.0,94,0.00,,,0.00,meteohub,2013-09-20 05:34:00,
2013-09-20 01:39:00,75.0,73.2,29.98,SE,138,0.0,2.0,94,0.00,,,0.00,meteohub,2013-09-20 05:39:00,
2013-09-20 01:44:00,75.0,73.2,29.98,SE,138,1.0,2.0,94,0.00,,,0.00,meteohub,2013-09-20 05:44:00,
2013-09-20 01:49:00,74.8,73.0,29.98,SE,138,0.0,2.0,94,0.00,,,0.00,meteohub,2013-09-20 05:49:00,
2013-09-20 01:54:00,74.8,73.0,29.98,SE,138,0.0,2.0,94,0.00,,,0.00,meteohub,2013-09-20 05:54:00,
2013-09-20 01:59:00,74.8,73.0,29.98,SE,138,0.0,2.0,94,0.00,,,0.00,meteohub,2013-09-20 05:59:00,
2013-09-20 02:04:00,74.7,72.9,29.98,SE,138,0.0,2.0,94,0.00,,,0.00,meteohub,2013-09-20 06:04:00,
2013-09-20 02:10:00,74.7,72.9,29.98,SE,138,0.0,2.0,94,0.00,,,0.00,meteohub,2013-09-20 06:10:00,
2013-09-20 02:15:00,74.7,72.9,29.98,SE,138,0.0,2.0,94,0.00,,,0.00,meteohub,2013-09-20 06:15:00,
2013-09-20 02:20:00,74.5,72.7,29.98,SE,138,1.0,2.0,94,0.00,,,0.00,meteohub,2013-09-20 06:20:00,
2013-09-20 02:25:00,74.5,72.7,29.98,SE,138,1.0,2.0,94,0.00,,,0.00,meteohub,2013-09-20 06:25:00,
2013-09-20 02:30:00,74.5,72.7,29.98,SE,138,0.0,3.0,94,0.00,,,0.00,meteohub,2013-09-20 06:30:00,
2013-09-20 02:35:00,74.5,72.7,29.98,SE,138,0.0,3.0,94,0.00,,,0.00,meteohub,2013-09-20 06:35:00,
2013-09-20 02:40:00,74.1,72.3,29.98,SE,138,0.0,2.0,94,0.00,,,0.00,meteohub,2013-09-20 06:40:00,
2013-09-20 02:45:00,74.1,72.3,29.98,SE,138,0.0,1.0,94,0.00,,,0.00,meteohub,2013-09-20 06:45:00,
2013-09-20 02:50:00,74.1,72.3,29.98,SE,138,0.0,1.0,94,0.00,,,0.00,meteohub,2013-09-20 06:50:00,
2013-09-20 02:55:00,74.1,72.3,29.98,SE,138,0.0,1.0,94,0.00,,,0.00,meteohub,2013-09-20 06:55:00,
2013-09-20 03:00:00,74.1,72.3,29.98,SE,138,1.0,1.0,94,0.00,,,0.00,meteohub,2013-09-20 07:00:00,
2013-09-20 03:05:00,74.1,72.3,29.98,SE,138,0.0,2.0,94,0.00,,,0.00,meteohub,2013-09-20 07:05:00,
2013-09-20 03:10:00,74.1,72.3,29.98,SE,138,1.0,2.0,94,0.00,,,0.00,meteohub,2013-09-20 07:10:00,
2013-09-20 03:15:00,74.1,72.3,29.98,SE,138,1.0,2.0,94,0.00,,,0.00,meteohub,2013-09-20 07:15:00,
2013-09-20 03:20:00,74.1,72.3,29.97,SE,138,1.0,2.0,94,0.00,,,0.00,meteohub,2013-09-20 07:20:00,
2013-09-20 03:25:00,74.1,72.3,29.97,SE,138,0.0,2.0,94,0.00,,,0.00,meteohub,2013-09-20 07:25:00,
2013-09-20 03:30:00,73.9,72.1,29.97,SE,138,0.0,2.0,94,0.00,,,0.00,meteohub,2013-09-20 07:30:00,
2013-09-20 03:35:00,73.9,72.1,29.97,SE,138,0.0,2.0,94,0.00,,,0.00,meteohub,2013-09-20 07:35:00,
2013-09-20 03:41:00,73.9,72.1,29.97,SE,138,1.0,2.0,94,0.00,,,0.00,meteohub,2013-09-20 07:41:00,
2013-09-20 03:46:00,73.9,72.1,29.97,SE,138,1.0,2.0,94,0.00,,,0.00,meteohub,2013-09-20 07:46:00,
2013-09-20 03:51:00,73.9,72.1,29.96,SE,138,0.0,2.0,94,0.00,,,0.00,meteohub,2013-09-20 07:51:00,
2013-09-20 03:56:00,73.8,72.0,29.96,SE,138,0.0,2.0,94,0.00,,,0.00,meteohub,2013-09-20 07:56:00,
2013-09-20 04:01:00,73.8,72.0,29.96,SE,138,0.0,2.0,94,0.00,,,0.00,meteohub,2013-09-20 08:01:00,
2013-09-20 04:06:00,73.8,72.0,29.96,SE,138,1.0,2.0,94,0.00,,,0.00,meteohub,2013-09-20 08:06:00,
2013-09-20 04:11:00,73.6,71.8,29.96,SE,138,1.0,2.0,94,0.00,,,0.00,meteohub,2013-09-20 08:11:00,
2013-09-20 04:16:00,73.6,71.8,29.96,SE,138,0.0,2.0,94,0.00,,,0.00,meteohub,2013-09-20 08:16:00,
2013-09-20 04:21:00,73.4,71.6,29.96,SE,138,0.0,2.0,94,0.00,,,0.00,meteohub,2013-09-20 08:21:00,
2013-09-20 04:26:00,73.2,71.4,29.96,SE,138,0.0,2.0,94,0.00,,,0.00,meteohub,2013-09-20 08:26:00,
2013-09-20 04:31:00,73.2,71.4,29.96,SE,138,0.0,2.0,94,0.00,,,0.00,meteohub,2013-09-20 08:31:00,
2013-09-20 04:36:00,73.0,71.2,29.96,SE,138,0.0,2.0,94,0.00,,,0.00,meteohub,2013-09-20 08:36:00,
2013-09-20 04:41:00,73.0,71.2,29.96,SE,138,0.0,2.0,94,0.00,,,0.00,meteohub,2013-09-20 08:41:00,
2013-09-20 04:46:00,72.9,71.1,29.96,SE,138,0.0,1.0,94,0.00,,,0.00,meteohub,2013-09-20 08:46:00,
2013-09-20 04:51:00,72.9,71.1,29.96,SE,138,0.0,1.0,94,0.00,,,0.00,meteohub,2013-09-20 08:51:00,
2013-09-20 04:56:00,72.9,71.1,29.96,SE,138,0.0,1.0,94,0.00,,,0.00,meteohub,2013-09-20 08:56:00,
2013-09-20 05:01:00,72.7,70.9,29.96,SE,138,0.0,1.0,94,0.00,,,0.00,meteohub,2013-09-20 09:01:00,
2013-09-20 05:06:00,72.3,70.5,29.96,SE,138,0.0,1.0,94,0.00,,,0.00,meteohub,2013-09-20 09:06:00,
2013-09-20 05:12:00,72.3,70.5,29.96,SE,138,0.0,0.0,94,0.00,,,0.00,meteohub,2013-09-20 09:12:00,
2013-09-20 05:17:00,72.3,70.5,29.95,SE,138,0.0,1.0,94,0.00,,,0.00,meteohub,2013-09-20 09:17:00,
2013-09-20 05:22:00,72.3,70.5,29.96,SE,138,0.0,1.0,94,0.00,,,0.00,meteohub,2013-09-20 09:22:00,
2013-09-20 05:27:00,72.1,70.3,29.96,SE,138,0.0,1.0,94,0.00,,,0.00,meteohub,2013-09-20 09:27:00,
2013-09-20 05:32:00,72.0,70.2,29.96,SE,138,0.0,1.0,94,0.00,,,0.00,meteohub,2013-09-20 09:32:00,
2013-09-20 05:37:00,72.0,70.2,29.96,SE,138,0.0,1.0,94,0.00,,,0.00,meteohub,2013-09-20 09:37:00,
2013-09-20 05:42:00,72.0,70.2,29.96,SE,138,0.0,1.0,94,0.00,,,0.00,meteohub,2013-09-20 09:42:00,
2013-09-20 05:47:00,72.1,70.3,29.96,SE,138,0.0,1.0,94,0.00,,,0.00,meteohub,2013-09-20 09:47:00,
2013-09-20 05:52:00,72.1,70.3,29.96,SE,138,0.0,1.0,94,0.00,,,0.00,meteohub,2013-09-20 09:52:00,
2013-09-20 05:57:00,72.0,70.2,29.96,SE,138,0.0,1.0,94,0.00,,,0.00,meteohub,2013-09-20 09:57:00,
2013-09-20 06:02:00,72.1,70.3,29.96,SE,138,0.0,1.0,94,0.00,,,0.00,meteohub,2013-09-20 10:02:00,
2013-09-20 06:07:00,72.1,70.3,29.96,SE,138,0.0,1.0,94,0.00,,,0.00,meteohub,2013-09-20 10:07:00,
2013-09-20 06:12:00,72.1,70.3,29.96,SE,138,0.0,1.0,94,0.00,,,0.00,meteohub,2013-09-20 10:12:00,
2013-09-20 06:17:00,72.0,70.2,29.96,SE,138,0.0,2.0,94,0.00,,,0.00,meteohub,2013-09-20 10:17:00,
2013-09-20 06:22:00,72.0,70.2,29.96,SE,138,0.0,2.0,94,0.00,,,0.00,meteohub,2013-09-20 10:22:00,
2013-09-20 06:27:00,72.0,70.2,29.96,SE,138,0.0,2.0,94,0.00,,,0.00,meteohub,2013-09-20 10:27:00,
2013-09-20 06:32:00,72.0,70.2,29.96,SE,138,0.0,1.0,94,0.00,,,0.00,meteohub,2013-09-20 10:32:00,
2013-09-20 06:37:00,72.1,70.3,29.96,SE,138,0.0,1.0,94,0.01,,,0.01,meteohub,2013-09-20 10:37:00,
2013-09-20 06:42:00,72.1,70.3,29.96,SE,138,1.0,2.0,94,0.01,,,0.01,meteohub,2013-09-20 10:42:00,
2013-09-20 06:47:00,72.1,70.3,29.96,SE,138,0.0,2.0,94,0.01,,,0.01,meteohub,2013-09-20 10:47:00,
2013-09-20 06:52:00,72.0,70.2,29.96,SE,138,0.0,2.0,94,0.01,,,0.01,meteohub,2013-09-20 10:52:00,
2013-09-20 06:57:00,72.0,70.2,29.96,SE,138,0.0,2.0,94,0.01,,,0.01,meteohub,2013-09-20 10:57:00,
2013-09-20 07:02:00,72.0,70.2,29.96,SE,138,1.0,2.0,94,0.01,,,0.01,meteohub,2013-09-20 11:02:00,
2013-09-20 07:07:00,72.0,70.2,29.96,SE,138,2.0,2.0,94,0.01,,,0.01,meteohub,2013-09-20 11:07:00,
2013-09-20 07:12:00,72.0,70.2,29.97,SE,138,0.0,2.0,94,0.01,,,0.01,meteohub,2013-09-20 11:12:00,
2013-09-20 07:17:00,71.8,70.0,29.97,SE,138,0.0,2.0,94,0.01,,,0.01,meteohub,2013-09-20 11:17:00,
2013-09-20 07:22:00,71.8,70.0,29.97,SE,138,1.0,2.0,94,0.01,,,0.01,meteohub,2013-09-20 11:22:00,
2013-09-20 07:27:00,71.6,69.8,29.97,SE,138,0.0,2.0,94,0.01,,,0.01,meteohub,2013-09-20 11:27:00,
2013-09-20 07:32:00,71.6,69.8,29.97,SE,138,0.0,2.0,94,0.01,,,0.01,meteohub,2013-09-20 11:32:00,
2013-09-20 07:37:00,71.4,70.0,29.97,SE,138,1.0,2.0,95,0.00,,,0.01,meteohub,2013-09-20 11:37:00,
2013-09-20 07:42:00,71.4,70.0,29.97,SE,138,1.0,2.0,95,0.00,,,0.01,meteohub,2013-09-20 11:42:00,
2013-09-20 07:47:00,71.6,70.2,29.97,SE,138,1.0,2.0,95,0.00,,,0.01,meteohub,2013-09-20 11:47:00,
2013-09-20 07:52:00,71.8,70.3,29.98,SE,138,0.0,2.0,95,0.00,,,0.01,meteohub,2013-09-20 11:52:00,
2013-09-20 07:57:00,72.0,70.2,29.98,SE,138,0.0,2.0,94,0.00,,,0.01,meteohub,2013-09-20 11:57:00,
2013-09-20 08:02:00,72.1,70.3,29.98,SE,138,1.0,2.0,94,0.00,,,0.01,meteohub,2013-09-20 12:02:00,
2013-09-20 08:07:00,72.3,70.9,29.98,SE,138,1.0,2.0,95,0.00,,,0.01,meteohub,2013-09-20 12:07:00,
2013-09-20 08:12:00,72.7,70.9,29.98,SE,138,0.0,2.0,94,0.00,,,0.01,meteohub,2013-09-20 12:12:00,
2013-09-20 08:17:00,72.7,70.9,29.98,SE,138,1.0,2.0,94,0.00,,,0.01,meteohub,2013-09-20 12:17:00,
2013-09-20 08:22:00,73.0,71.2,29.98,SE,138,0.0,3.0,94,0.00,,,0.01,meteohub,2013-09-20 12:22:00,
2013-09-20 08:27:00,73.6,71.8,29.99,SE,138,1.0,3.0,94,0.00,,,0.01,meteohub,2013-09-20 12:27:00,
2013-09-20 08:32:00,73.9,72.1,29.99,East,99,1.0,3.0,94,0.00,,,0.01,meteohub,2013-09-20 12:32:00,
2013-09-20 08:37:00,74.1,72.3,29.99,East,100,0.0,4.0,94,0.00,,,0.01,meteohub,2013-09-20 12:37:00,
2013-09-20 08:42:00,74.7,72.9,29.99,East,100,1.0,4.0,94,0.00,,,0.01,meteohub,2013-09-20 12:42:00,
2013-09-20 08:47:00,75.2,73.0,29.99,East,100,1.0,3.0,93,0.00,,,0.01,meteohub,2013-09-20 12:47:00,
2013-09-20 08:52:00,75.6,73.4,29.99,East,99,1.0,3.0,93,0.00,,,0.01,meteohub,2013-09-20 12:52:00,
2013-09-20 08:57:00,76.3,74.1,29.99,East,99,2.0,3.0,93,0.00,,,0.01,meteohub,2013-09-20 12:57:00,
2013-09-20 09:02:00,77.0,74.5,29.99,East,99,1.0,3.0,92,0.00,,,0.01,meteohub,2013-09-20 13:02:00,
2013-09-20 09:07:00,77.7,74.8,29.99,East,101,2.0,3.0,91,0.00,,,0.01,meteohub,2013-09-20 13:07:00,
2013-09-20 09:12:00,78.3,75.0,29.99,East,101,2.0,5.0,90,0.00,,,0.01,meteohub,2013-09-20 13:12:00,
2013-09-20 09:17:00,78.6,75.0,29.99,East,101,2.0,5.0,89,0.00,,,0.01,meteohub,2013-09-20 13:17:00,
2013-09-20 09:22:00,79.2,75.6,29.99,East,100,3.0,5.0,89,0.00,,,0.01,meteohub,2013-09-20 13:22:00,
2013-09-20 09:27:00,79.3,75.6,29.99,ESE,111,3.0,5.0,88,0.00,,,0.01,meteohub,2013-09-20 13:27:00,
2013-09-20 09:32:00,79.5,75.0,29.99,ESE,104,3.0,5.0,86,0.00,,,0.01,meteohub,2013-09-20 13:32:00,
2013-09-20 09:37:00,79.9,75.4,29.99,East,94,3.0,5.0,86,0.00,,,0.01,meteohub,2013-09-20 13:37:00,
2013-09-20 09:42:00,80.2,75.4,29.99,East,84,2.0,5.0,85,0.00,,,0.01,meteohub,2013-09-20 13:42:00,
2013-09-20 09:47:00,80.8,75.9,29.99,ENE,78,3.0,5.0,85,0.00,,,0.01,meteohub,2013-09-20 13:47:00,
2013-09-20 09:53:00,81.1,75.2,29.99,ENE,68,2.0,5.0,82,0.00,,,0.01,meteohub,2013-09-20 13:53:00,
2013-09-20 09:58:00,82.0,74.8,29.99,ENE,69,2.0,5.0,79,0.00,,,0.01,meteohub,2013-09-20 13:58:00,
2013-09-20 10:03:00,82.8,74.5,29.99,NE,47,2.0,6.0,76,0.00,,,0.01,meteohub,2013-09-20 14:03:00,
2013-09-20 10:08:00,83.5,74.7,29.99,East,93,2.0,6.0,75,0.00,,,0.01,meteohub,2013-09-20 14:08:00,
2013-09-20 10:13:00,84.0,73.9,29.99,East,94,6.0,6.0,72,0.00,,,0.01,meteohub,2013-09-20 14:13:00,
2013-09-20 10:18:00,83.8,73.4,29.99,East,94,3.0,6.0,71,0.00,,,0.01,meteohub,2013-09-20 14:18:00,
2013-09-20 10:23:00,83.8,73.4,29.99,East,95,3.0,6.0,71,0.00,,,0.01,meteohub,2013-09-20 14:23:00,
2013-09-20 10:28:00,84.4,73.9,29.99,East,95,5.0,6.0,71,0.00,,,0.01,meteohub,2013-09-20 14:28:00,
2013-09-20 10:33:00,84.9,74.5,29.98,SSE,147,3.0,6.0,71,0.00,,,0.01,meteohub,2013-09-20 14:33:00,
2013-09-20 10:38:00,85.5,73.8,29.99,South,169,3.0,6.0,68,0.00,,,0.01,meteohub,2013-09-20 14:38:00,
2013-09-20 10:43:00,85.6,74.3,29.99,ESE,108,3.0,7.0,69,0.00,,,0.01,meteohub,2013-09-20 14:43:00,
2013-09-20 10:49:00,86.0,74.1,29.99,ESE,107,4.0,7.0,68,0.00,,,0.01,meteohub,2013-09-20 14:49:00,
2013-09-20 10:54:00,86.2,73.9,29.98,ESE,106,3.0,7.0,67,0.00,,,0.01,meteohub,2013-09-20 14:54:00,
2013-09-20 10:59:00,86.2,73.9,29.98,ESE,105,2.0,6.0,67,0.00,,,0.01,meteohub,2013-09-20 14:59:00,
2013-09-20 11:04:00,86.2,74.3,29.98,ESE,105,3.0,6.0,68,0.00,,,0.01,meteohub,2013-09-20 15:04:00,
2013-09-20 11:09:00,86.2,73.4,29.99,ESE,105,2.0,5.0,66,0.00,,,0.01,meteohub,2013-09-20 15:09:00,
2013-09-20 11:14:00,86.2,73.9,29.98,ESE,115,3.0,7.0,67,0.00,,,0.01,meteohub,2013-09-20 15:14:00,
2013-09-20 11:19:00,86.2,73.0,29.98,ESE,107,1.0,7.0,65,0.00,,,0.01,meteohub,2013-09-20 15:19:00,
2013-09-20 11:24:00,85.6,73.0,29.98,East,90,6.0,7.0,66,0.00,,,0.01,meteohub,2013-09-20 15:24:00,
2013-09-20 11:29:00,85.6,73.4,29.98,East,90,2.0,7.0,67,0.00,,,0.01,meteohub,2013-09-20 15:29:00,
2013-09-20 11:34:00,85.8,73.2,29.98,East,90,2.0,7.0,66,0.00,,,0.01,meteohub,2013-09-20 15:34:00,
2013-09-20 11:39:00,86.4,73.6,29.98,East,89,2.0,7.0,66,0.00,,,0.01,meteohub,2013-09-20 15:39:00,
2013-09-20 11:44:00,86.9,73.8,29.98,East,89,1.0,6.0,65,0.00,,,0.01,meteohub,2013-09-20 15:44:00,
2013-09-20 11:49:00,86.7,73.6,29.98,East,89,2.0,6.0,65,0.00,,,0.01,meteohub,2013-09-20 15:49:00,
2013-09-20 11:54:00,86.9,73.2,29.98,East,90,2.0,7.0,64,0.00,,,0.01,meteohub,2013-09-20 15:54:00,
2013-09-20 11:59:00,86.9,73.2,29.98,ESE,108,3.0,7.0,64,0.00,,,0.01,meteohub,2013-09-20 15:59:00,
2013-09-20 12:04:00,86.9,73.8,29.97,SE,127,3.0,7.0,65,0.00,,,0.01,meteohub,2013-09-20 16:04:00,
2013-09-20 12:09:00,87.4,73.8,29.97,SE,127,1.0,7.0,64,0.00,,,0.01,meteohub,2013-09-20 16:09:00,
2013-09-20 12:14:00,87.6,73.9,29.97,SE,126,0.0,7.0,64,0.00,,,0.01,meteohub,2013-09-20 16:14:00,
2013-09-20 12:20:00,87.4,73.2,29.98,SE,127,1.0,5.0,63,0.00,,,0.01,meteohub,2013-09-20 16:20:00,
2013-09-20 12:25:00,87.6,73.4,29.98,SE,127,2.0,5.0,63,0.00,,,0.01,meteohub,2013-09-20 16:25:00,
2013-09-20 12:30:00,87.6,73.4,29.97,SE,127,2.0,5.0,63,0.00,,,0.01,meteohub,2013-09-20 16:30:00,
2013-09-20 12:35:00,87.8,73.6,29.97,SE,127,3.0,5.0,63,0.00,,,0.01,meteohub,2013-09-20 16:35:00,
2013-09-20 12:40:00,88.0,73.8,29.97,SE,128,3.0,5.0,63,0.00,,,0.01,meteohub,2013-09-20 16:40:00,
2013-09-20 12:45:00,88.0,73.4,29.97,SE,130,1.0,5.0,62,0.00,,,0.01,meteohub,2013-09-20 16:45:00,
2013-09-20 12:50:00,87.3,73.0,29.97,SE,130,1.0,5.0,63,0.00,,,0.01,meteohub,2013-09-20 16:50:00,
2013-09-20 12:55:00,87.3,73.0,29.96,SE,129,4.0,5.0,63,0.00,,,0.01,meteohub,2013-09-20 16:55:00,
2013-09-20 13:00:00,87.6,73.9,29.96,SE,129,2.0,6.0,64,0.00,,,0.01,meteohub,2013-09-20 17:00:00,
2013-09-20 13:05:00,87.6,73.0,29.96,SE,132,0.0,6.0,62,0.00,,,0.01,meteohub,2013-09-20 17:05:00,
2013-09-20 13:10:00,88.0,73.8,29.96,ESE,107,4.0,6.0,63,0.00,,,0.01,meteohub,2013-09-20 17:10:00,
2013-09-20 13:15:00,88.0,73.4,29.96,ESE,107,1.0,5.0,62,0.00,,,0.01,meteohub,2013-09-20 17:15:00,
2013-09-20 13:20:00,88.0,73.4,29.96,ESE,121,1.0,5.0,62,0.00,,,0.01,meteohub,2013-09-20 17:20:00,
2013-09-20 13:25:00,88.2,73.0,29.95,East,90,2.0,5.0,61,0.00,,,0.01,meteohub,2013-09-20 17:25:00,
2013-09-20 13:30:00,88.2,73.0,29.95,ESE,117,1.0,5.0,61,0.00,,,0.01,meteohub,2013-09-20 17:30:00,
2013-09-20 13:35:00,88.5,72.9,29.95,ESE,117,2.0,5.0,60,0.00,,,0.01,meteohub,2013-09-20 17:35:00,
2013-09-20 13:41:00,88.5,73.4,29.95,ESE,123,2.0,5.0,61,0.00,,,0.01,meteohub,2013-09-20 17:41:00,
2013-09-20 13:46:00,89.1,73.4,29.94,SE,132,2.0,4.0,60,0.00,,,0.01,meteohub,2013-09-20 17:46:00,
2013-09-20 13:51:00,90.0,73.8,29.94,SE,125,3.0,4.0,59,0.00,,,0.01,meteohub,2013-09-20 17:51:00,
2013-09-20 13:56:00,90.0,73.8,29.94,ESE,123,1.0,5.0,59,0.00,,,0.01,meteohub,2013-09-20 17:56:00,
2013-09-20 14:01:00,90.0,73.8,29.94,ESE,118,4.0,5.0,59,0.00,,,0.01,meteohub,2013-09-20 18:01:00,
2013-09-20 14:06:00,90.0,73.2,29.94,ESE,117,2.0,5.0,58,0.00,,,0.01,meteohub,2013-09-20 18:06:00,
2013-09-20 14:11:00,90.1,73.4,29.93,ESE,117,2.0,5.0,58,0.00,,,0.01,meteohub,2013-09-20 18:11:00,
2013-09-20 14:16:00,90.0,72.7,29.93,ESE,117,1.0,5.0,57,0.00,,,0.01,meteohub,2013-09-20 18:16:00,
2013-09-20 14:21:00,89.8,73.6,29.93,ESE,105,1.0,5.0,59,0.00,,,0.01,meteohub,2013-09-20 18:21:00,
2013-09-20 14:26:00,89.8,72.5,29.93,ESE,105,1.0,5.0,57,0.00,,,0.01,meteohub,2013-09-20 18:26:00,
2013-09-20 14:31:00,89.6,72.3,29.93,ESE,105,3.0,4.0,57,0.00,,,0.01,meteohub,2013-09-20 18:31:00,
2013-09-20 14:36:00,89.8,73.6,29.93,ESE,105,3.0,5.0,59,0.00,,,0.01,meteohub,2013-09-20 18:36:00,
2013-09-20 14:41:00,90.3,73.0,29.92,ESE,105,1.0,5.0,57,0.00,,,0.01,meteohub,2013-09-20 18:41:00,
2013-09-20 14:46:00,90.1,72.3,29.92,ESE,111,2.0,5.0,56,0.00,,,0.01,meteohub,2013-09-20 18:46:00,
2013-09-20 14:52:00,90.1,72.9,29.91,ESE,109,4.0,5.0,57,0.00,,,0.01,meteohub,2013-09-20 18:52:00,
2013-09-20 14:57:00,90.0,73.2,29.91,ESE,109,0.0,5.0,58,0.00,,,0.01,meteohub,2013-09-20 18:57:00,
2013-09-20 15:02:00,90.5,72.7,29.91,ESE,110,3.0,5.0,56,0.00,,,0.01,meteohub,2013-09-20 19:02:00,
2013-09-20 15:07:00,90.3,73.0,29.91,ESE,110,3.0,5.0,57,0.00,,,0.01,meteohub,2013-09-20 19:07:00,
2013-09-20 15:12:00,89.8,72.5,29.91,ESE,110,1.0,4.0,57,0.00,,,0.01,meteohub,2013-09-20 19:12:00,
2013-09-20 15:17:00,90.1,72.9,29.90,ESE,110,3.0,4.0,57,0.00,,,0.01,meteohub,2013-09-20 19:17:00,
2013-09-20 15:22:00,90.3,72.5,29.90,ESE,110,0.0,4.0,56,0.00,,,0.01,meteohub,2013-09-20 19:22:00,
2013-09-20 15:27:00,90.7,72.3,29.90,ESE,110,2.0,4.0,55,0.00,,,0.01,meteohub,2013-09-20 19:27:00,
2013-09-20 15:32:00,90.7,72.9,29.89,ESE,109,2.0,5.0,56,0.00,,,0.01,meteohub,2013-09-20 19:32:00,
2013-09-20 15:37:00,90.7,72.3,29.89,East,84,2.0,5.0,55,0.00,,,0.01,meteohub,2013-09-20 19:37:00,
2013-09-20 15:42:00,90.3,72.0,29.89,East,85,5.0,5.0,55,0.00,,,0.01,meteohub,2013-09-20 19:42:00,
2013-09-20 15:47:00,90.0,72.1,29.89,South,186,3.0,6.0,56,0.00,,,0.01,meteohub,2013-09-20 19:47:00,
2013-09-20 15:52:00,90.1,71.2,29.88,ESE,112,1.0,6.0,54,0.00,,,0.01,meteohub,2013-09-20 19:52:00,
2013-09-20 15:58:00,90.0,72.1,29.88,ESE,111,1.0,6.0,56,0.00,,,0.01,meteohub,2013-09-20 19:58:00,
2013-09-20 16:03:00,89.8,72.5,29.88,ESE,111,1.0,5.0,57,0.00,,,0.01,meteohub,2013-09-20 20:03:00,
2013-09-20 16:08:00,89.4,72.7,29.88,ESE,111,0.0,4.0,58,0.00,,,0.01,meteohub,2013-09-20 20:08:00,
2013-09-20 16:13:00,88.9,72.1,29.88,ESE,111,0.0,4.0,58,0.00,,,0.01,meteohub,2013-09-20 20:13:00,
2013-09-20 16:18:00,88.3,71.2,29.88,ESE,110,2.0,4.0,57,0.00,,,0.01,meteohub,2013-09-20 20:18:00,
2013-09-20 16:23:00,88.0,71.4,29.88,ESE,110,0.0,3.0,58,0.00,,,0.01,meteohub,2013-09-20 20:23:00,
2013-09-20 16:28:00,87.4,71.8,29.88,ESE,110,0.0,3.0,60,0.00,,,0.01,meteohub,2013-09-20 20:28:00,
2013-09-20 16:33:00,87.4,72.9,29.88,ESE,110,3.0,3.0,62,0.00,,,0.01,meteohub,2013-09-20 20:33:00,
2013-09-20 16:38:00,87.8,73.6,29.88,NW,319,1.0,3.0,63,0.00,,,0.01,meteohub,2013-09-20 20:38:00,
2013-09-20 16:43:00,88.7,73.9,29.88,NW,319,1.0,5.0,62,0.00,,,0.01,meteohub,2013-09-20 20:43:00,
2013-09-20 16:48:00,89.4,73.8,29.88,North,355,3.0,5.0,60,0.00,,,0.01,meteohub,2013-09-20 20:48:00,
2013-09-20 16:53:00,89.8,74.1,29.88,NNW,345,2.0,5.0,60,0.00,,,0.01,meteohub,2013-09-20 20:53:00,
2013-09-20 16:58:00,88.3,73.6,29.87,NW,325,6.0,6.0,62,0.00,,,0.01,meteohub,2013-09-20 20:58:00,
2013-09-20 17:03:00,88.0,74.3,29.87,NW,325,1.0,9.0,64,0.00,,,0.01,meteohub,2013-09-20 21:03:00,
2013-09-20 17:08:00,87.4,73.8,29.87,NW,325,0.0,9.0,64,0.00,,,0.01,meteohub,2013-09-20 21:08:00,
2013-09-20 17:13:00,86.9,73.2,29.87,NW,325,3.0,8.0,64,0.00,,,0.01,meteohub,2013-09-20 21:13:00,
2013-09-20 17:19:00,87.3,74.1,29.87,NW,325,1.0,4.0,65,0.00,,,0.01,meteohub,2013-09-20 21:19:00,
2013-09-20 17:24:00,88.2,73.9,29.87,NW,325,0.0,4.0,63,0.00,,,0.01,meteohub,2013-09-20 21:24:00,
2013-09-20 17:29:00,88.3,74.1,29.87,NW,325,0.0,4.0,63,0.00,,,0.01,meteohub,2013-09-20 21:29:00,
2013-09-20 17:34:00,88.7,73.9,29.87,NW,325,1.0,3.0,62,0.00,,,0.01,meteohub,2013-09-20 21:34:00,
2013-09-20 17:39:00,89.1,74.3,29.87,NW,325,2.0,4.0,62,0.00,,,0.01,meteohub,2013-09-20 21:39:00,
2013-09-20 17:44:00,89.1,74.3,29.87,NW,325,3.0,4.0,62,0.00,,,0.01,meteohub,2013-09-20 21:44:00,
2013-09-20 17:49:00,88.9,73.8,29.87,NW,325,2.0,5.0,61,0.00,,,0.01,meteohub,2013-09-20 21:49:00,
2013-09-20 17:54:00,88.9,73.8,29.86,NW,325,1.0,5.0,61,0.00,,,0.01,meteohub,2013-09-20 21:54:00,
2013-09-20 17:59:00,88.5,73.4,29.87,NW,325,0.0,5.0,61,0.00,,,0.01,meteohub,2013-09-20 21:59:00,
2013-09-20 18:04:00,88.5,73.8,29.86,NW,325,2.0,5.0,62,0.00,,,0.01,meteohub,2013-09-20 22:04:00,
2013-09-20 18:09:00,88.2,73.9,29.86,NW,325,0.0,5.0,63,0.00,,,0.01,meteohub,2013-09-20 22:09:00,
2013-09-20 18:14:00,87.8,73.6,29.86,NW,325,5.0,5.0,63,0.00,,,0.01,meteohub,2013-09-20 22:14:00,
2013-09-20 18:19:00,87.3,73.6,29.86,NW,322,3.0,5.0,64,0.00,,,0.01,meteohub,2013-09-20 22:19:00,
2013-09-20 18:24:00,86.5,73.4,29.86,NW,310,3.0,7.0,65,0.00,,,0.01,meteohub,2013-09-20 22:24:00,
2013-09-20 18:29:00,86.2,73.4,29.86,NW,310,4.0,7.0,66,0.00,,,0.01,meteohub,2013-09-20 22:29:00,
2013-09-20 18:35:00,85.8,73.6,29.86,NW,310,1.0,7.0,67,0.00,,,0.01,meteohub,2013-09-20 22:35:00,
2013-09-20 18:40:00,85.6,73.0,29.86,NW,310,2.0,7.0,66,0.00,,,0.01,meteohub,2013-09-20 22:40:00,
2013-09-20 18:45:00,85.5,73.2,29.86,NW,310,2.0,7.0,67,0.00,,,0.01,meteohub,2013-09-20 22:45:00,
2013-09-20 18:50:00,85.3,73.9,29.86,NW,310,2.0,6.0,69,0.00,,,0.01,meteohub,2013-09-20 22:50:00,
2013-09-20 18:55:00,85.1,73.4,29.86,NW,310,0.0,5.0,68,0.00,,,0.01,meteohub,2013-09-20 22:55:00,
2013-09-20 19:00:00,84.7,73.0,29.86,NW,310,2.0,4.0,68,0.00,,,0.01,meteohub,2013-09-20 23:00:00,
2013-09-20 19:05:00,84.4,73.0,29.86,NW,310,3.0,5.0,69,0.00,,,0.01,meteohub,2013-09-20 23:05:00,
2013-09-20 19:10:00,83.8,73.0,29.86,NW,310,3.0,6.0,70,0.00,,,0.01,meteohub,2013-09-20 23:10:00,
2013-09-20 19:15:00,83.5,73.0,29.86,NW,310,3.0,6.0,71,0.00,,,0.01,meteohub,2013-09-20 23:15:00,
2013-09-20 19:20:00,82.9,73.0,29.86,NW,310,0.0,6.0,72,0.00,,,0.01,meteohub,2013-09-20 23:20:00,
2013-09-20 19:25:00,82.6,73.0,29.86,NW,310,3.0,5.0,73,0.00,,,0.01,meteohub,2013-09-20 23:25:00,
2013-09-20 19:30:00,82.2,73.0,29.86,NW,310,0.0,5.0,74,0.00,,,0.01,meteohub,2013-09-20 23:30:00,
2013-09-20 19:35:00,82.0,72.9,29.86,NW,310,1.0,5.0,74,0.00,,,0.01,meteohub,2013-09-20 23:35:00,
2013-09-20 19:40:00,81.7,72.5,29.86,NW,310,1.0,4.0,74,0.00,,,0.01,meteohub,2013-09-20 23:40:00,
2013-09-20 19:46:00,81.3,72.7,29.86,NW,310,1.0,4.0,75,0.00,,,0.01,meteohub,2013-09-20 23:46:00,
2013-09-20 19:51:00,81.1,72.5,29.86,NW,310,0.0,4.0,75,0.00,,,0.01,meteohub,2013-09-20 23:51:00,
2013-09-20 19:56:00,81.1,72.5,29.86,NW,310,2.0,4.0,75,0.00,,,0.01,meteohub,2013-09-20 23:56:00,
2013-09-20 20:01:00,81.1,72.5,29.86,NW,310,1.0,4.0,75,0.00,,,0.01,meteohub,2013-09-21 00:01:00,
2013-09-20 20:06:00,81.1,72.5,29.86,NW,310,2.0,4.0,75,0.00,,,0.01,meteohub,2013-09-21 00:06:00,
2013-09-20 20:11:00,81.0,72.7,29.87,NW,310,0.0,3.0,76,0.00,,,0.01,meteohub,2013-09-21 00:11:00,
2013-09-20 20:16:00,81.0,72.7,29.87,NW,310,0.0,3.0,76,0.00,,,0.01,meteohub,2013-09-21 00:16:00,
2013-09-20 20:21:00,80.8,72.5,29.87,NW,310,0.0,3.0,76,0.00,,,0.01,meteohub,2013-09-21 00:21:00,
2013-09-20 20:26:00,80.8,72.9,29.87,NW,310,0.0,2.0,77,0.00,,,0.01,meteohub,2013-09-21 00:26:00,
2013-09-20 20:31:00,80.6,72.7,29.87,NW,310,0.0,2.0,77,0.00,,,0.01,meteohub,2013-09-21 00:31:00,
2013-09-20 20:36:00,80.4,72.5,29.87,NW,310,0.0,1.0,77,0.00,,,0.01,meteohub,2013-09-21 00:36:00,
2013-09-20 20:41:00,80.6,72.7,29.87,NW,310,1.0,1.0,77,0.00,,,0.01,meteohub,2013-09-21 00:41:00,
2013-09-20 20:46:00,80.4,72.9,29.88,NW,310,0.0,1.0,78,0.00,,,0.01,meteohub,2013-09-21 00:46:00,
2013-09-20 20:51:00,80.4,72.9,29.88,NW,310,0.0,1.0,78,0.00,,,0.01,meteohub,2013-09-21 00:51:00,
2013-09-20 20:56:00,80.2,72.7,29.88,NW,310,0.0,1.0,78,0.00,,,0.01,meteohub,2013-09-21 00:56:00,
2013-09-20 21:01:00,80.2,72.7,29.88,NW,310,0.0,1.0,78,0.00,,,0.01,meteohub,2013-09-21 01:01:00,
2013-09-20 21:06:00,80.1,72.5,29.88,NW,310,0.0,1.0,78,0.00,,,0.01,meteohub,2013-09-21 01:06:00,
2013-09-20 21:11:00,80.1,73.0,29.88,NW,310,0.0,1.0,79,0.00,,,0.01,meteohub,2013-09-21 01:11:00,
2013-09-20 21:17:00,80.1,72.5,29.89,NW,310,0.0,1.0,78,0.00,,,0.01,meteohub,2013-09-21 01:17:00,
2013-09-20 21:22:00,79.9,72.9,29.89,NW,310,0.0,1.0,79,0.00,,,0.01,meteohub,2013-09-21 01:22:00,
2013-09-20 21:27:00,79.9,72.9,29.89,NW,310,0.0,1.0,79,0.00,,,0.01,meteohub,2013-09-21 01:27:00,
2013-09-20 21:32:00,79.9,72.9,29.89,NW,310,0.0,0.0,79,0.00,,,0.01,meteohub,2013-09-21 01:32:00,
2013-09-20 21:37:00,79.9,73.2,29.90,NW,310,0.0,2.0,80,0.00,,,0.01,meteohub,2013-09-21 01:37:00,
2013-09-20 21:42:00,79.7,73.0,29.90,NW,310,0.0,2.0,80,0.00,,,0.01,meteohub,2013-09-21 01:42:00,
2013-09-20 21:47:00,79.7,72.7,29.90,NW,310,2.0,2.0,79,0.00,,,0.01,meteohub,2013-09-21 01:47:00,
2013-09-20 21:52:00,80.1,72.1,29.90,NW,310,3.0,3.0,77,0.00,,,0.01,meteohub,2013-09-21 01:52:00,
2013-09-20 21:57:00,80.2,70.9,29.90,NW,311,2.0,4.0,73,0.00,,,0.01,meteohub,2013-09-21 01:57:00,
2013-09-20 22:02:00,80.8,70.9,29.90,NW,311,3.0,4.0,72,0.00,,,0.01,meteohub,2013-09-21 02:02:00,
2013-09-20 22:07:00,81.1,70.9,29.90,NW,311,4.0,4.0,71,0.00,,,0.01,meteohub,2013-09-21 02:07:00,
2013-09-20 22:12:00,81.3,70.2,29.90,NW,311,2.0,4.0,69,0.00,,,0.01,meteohub,2013-09-21 02:12:00,
2013-09-20 22:17:00,81.5,70.7,29.90,NW,311,2.0,4.0,70,0.00,,,0.01,meteohub,2013-09-21 02:17:00,
2013-09-20 22:22:00,81.7,70.5,29.90,NW,311,2.0,4.0,69,0.00,,,0.01,meteohub,2013-09-21 02:22:00,
2013-09-20 22:27:00,81.7,70.9,29.90,NW,311,2.0,6.0,70,0.00,,,0.01,meteohub,2013-09-21 02:27:00,
2013-09-20 22:32:00,81.7,70.9,29.90,NW,311,3.0,6.0,70,0.00,,,0.01,meteohub,2013-09-21 02:32:00,
2013-09-20 22:37:00,81.3,71.1,29.90,NW,311,4.0,6.0,71,0.00,,,0.01,meteohub,2013-09-21 02:37:00,
2013-09-20 22:42:00,81.1,70.3,29.90,NW,311,2.0,6.0,70,0.00,,,0.01,meteohub,2013-09-21 02:42:00,
2013-09-20 22:47:00,81.1,70.3,29.90,NW,311,5.0,5.0,70,0.00,,,0.01,meteohub,2013-09-21 02:47:00,
2013-09-20 22:52:00,81.0,70.2,29.90,NW,315,3.0,5.0,70,0.00,,,0.01,meteohub,2013-09-21 02:52:00,
2013-09-20 22:57:00,81.0,70.2,29.90,NW,316,2.0,6.0,70,0.00,,,0.01,meteohub,2013-09-21 02:57:00,
2013-09-20 23:02:00,80.8,70.5,29.90,NW,316,3.0,6.0,71,0.00,,,0.01,meteohub,2013-09-21 03:02:00,
2013-09-20 23:07:00,80.6,70.3,29.91,NW,316,2.0,6.0,71,0.00,,,0.01,meteohub,2013-09-21 03:07:00,
2013-09-20 23:12:00,80.4,70.5,29.90,NW,316,1.0,5.0,72,0.00,,,0.01,meteohub,2013-09-21 03:12:00,
2013-09-20 23:17:00,80.2,70.3,29.90,ESE,103,4.0,5.0,72,0.00,,,0.01,meteohub,2013-09-21 03:17:00,
2013-09-20 23:22:00,80.2,70.3,29.91,SE,124,4.0,6.0,72,0.00,,,0.01,meteohub,2013-09-21 03:22:00,
2013-09-20 23:27:00,80.1,70.2,29.91,SE,126,2.0,7.0,72,0.00,,,0.01,meteohub,2013-09-21 03:27:00,
2013-09-20 23:32:00,79.9,70.5,29.91,ESE,120,2.0,7.0,73,0.00,,,0.01,meteohub,2013-09-21 03:32:00,
2013-09-20 23:37:00,79.9,70.5,29.91,ESE,119,1.0,5.0,73,0.00,,,0.01,meteohub,2013-09-21 03:37:00,
2013-09-20 23:42:00,79.7,70.3,29.91,ESE,120,2.0,5.0,73,0.00,,,0.01,meteohub,2013-09-21 03:42:00,
2013-09-20 23:47:00,79.5,70.5,29.91,ESE,120,1.0,4.0,74,0.00,,,0.01,meteohub,2013-09-21 03:47:00,
2013-09-20 23:52:00,79.3,70.3,29.91,ESE,120,0.0,4.0,74,0.00,,,0.01,meteohub,2013-09-21 03:52:00,
2013-09-20 23:57:00,79.2,70.5,29.91,ESE,120,1.0,3.0,75,0.00,,,0.01,meteohub,2013-09-21 03:57:00,